createdAt,value
2023-02-24T00:02:06.138Z,2.84
2023-02-24T00:04:38.735Z,2.86
2023-02-24T00:07:08.709Z,2.88
2023-02-24T00:09:35.649Z,2.90
2023-02-24T00:12:05.398Z,2.88
2023-02-24T00:14:35.513Z,2.92
2023-02-24T00:17:02.881Z,2.91
2023-02-24T00:19:34.370Z,2.90
2023-02-24T00:22:02.197Z,2.91
2023-02-24T00:24:29.332Z,2.93
2023-02-24T00:26:59.831Z,2.94
2023-02-24T00:29:29.213Z,2.94
2023-02-24T00:32:01.685Z,2.92
2023-02-24T00:34:35.691Z,2.90
2023-02-24T00:37:03.280Z,2.90
2023-02-24T00:39:32.314Z,2.87
2023-02-24T00:42:05.002Z,2.82
2023-02-24T00:44:40.068Z,2.80
2023-02-24T00:47:09.127Z,2.77
2023-02-24T00:49:42.625Z,2.75
2023-02-24T00:52:14.203Z,2.70
2023-02-24T00:54:44.965Z,2.67
2023-02-24T00:57:12.563Z,2.66
2023-02-24T00:59:40.013Z,2.62
2023-02-24T01:02:07.404Z,2.59
2023-02-24T01:04:34.949Z,2.55
2023-02-24T01:07:02.218Z,2.54
2023-02-24T01:09:31.717Z,2.53
2023-02-24T01:12:17.376Z,2.49
2023-02-24T01:14:49.737Z,2.49
2023-02-24T01:17:18.801Z,2.46
2023-02-24T01:19:49.109Z,2.44
2023-02-24T01:22:20.443Z,2.40
2023-02-24T01:24:48.549Z,2.36
2023-02-24T01:27:19.728Z,2.32
2023-02-24T01:29:48.240Z,2.29
2023-02-24T01:32:21.052Z,2.26
2023-02-24T01:34:51.587Z,2.24
2023-02-24T01:37:19.362Z,2.21
2023-02-24T01:39:46.419Z,2.17
2023-02-24T01:42:21.696Z,2.13
2023-02-24T01:44:48.191Z,2.12
2023-02-24T01:47:21.195Z,2.08
2023-02-24T01:49:51.500Z,2.05
2023-02-24T01:52:23.829Z,2.02
2023-02-24T01:54:55.594Z,2.00
2023-02-24T01:57:24.264Z,2.00
2023-02-24T01:59:54.397Z,1.97
2023-02-24T02:02:23.317Z,1.96
2023-02-24T02:04:57.406Z,1.95
2023-02-24T02:07:26.610Z,1.94
2023-02-24T02:09:55.056Z,1.92
2023-02-24T02:12:23.065Z,1.91
2023-02-24T02:14:54.682Z,1.90
2023-02-24T02:17:37.274Z,1.87
2023-02-24T02:20:16.300Z,1.83
2023-02-24T02:23:13.888Z,1.80
2023-02-24T02:26:24.406Z,1.76
2023-02-24T02:29:26.128Z,1.72
2023-02-24T02:32:07.500Z,1.68
2023-02-24T02:35:02.281Z,1.63
2023-02-24T02:37:41.283Z,1.60
2023-02-24T02:40:20.167Z,1.59
2023-02-24T02:43:01.340Z,1.56
2023-02-24T02:45:40.327Z,1.53
2023-02-24T02:48:15.934Z,1.51
2023-02-24T02:50:52.523Z,1.48
2023-02-24T02:53:35.666Z,1.46
2023-02-24T02:56:15.714Z,1.43
2023-02-24T02:58:53.309Z,1.41
2023-02-24T03:01:23.852Z,1.39
2023-02-24T03:03:54.859Z,1.37
2023-02-24T03:06:29.105Z,1.35
2023-02-24T03:09:16.289Z,1.32
2023-02-24T03:11:48.451Z,1.30
2023-02-24T03:14:17.429Z,1.27
2023-02-24T03:16:49.238Z,1.25
2023-02-24T03:19:20.982Z,1.23
2023-02-24T03:21:58.800Z,1.21
2023-02-24T03:24:25.544Z,1.24
2023-02-24T03:27:14.255Z,1.24
2023-02-24T03:29:40.808Z,1.23
2023-02-24T03:32:15.727Z,1.23
2023-02-24T03:35:04.991Z,1.20
2023-02-24T03:37:33.779Z,1.20
2023-02-24T03:40:16.641Z,1.20
2023-02-24T03:42:59.699Z,1.20
2023-02-24T03:45:27.946Z,1.21
2023-02-24T03:47:56.073Z,1.23
2023-02-24T03:50:23.075Z,1.23
2023-02-24T03:52:58.309Z,1.25
2023-02-24T03:55:40.373Z,1.26
2023-02-24T03:58:53.048Z,1.27
2023-02-24T04:01:37.806Z,1.27
2023-02-24T04:04:19.176Z,1.29
2023-02-24T04:06:58.097Z,1.29
2023-02-24T04:09:38.422Z,1.31
2023-02-24T04:12:18.862Z,1.33
2023-02-24T04:14:56.101Z,1.34
2023-02-24T04:17:40.656Z,1.34
2023-02-24T04:20:16.741Z,1.39
2023-02-24T04:22:49.425Z,1.45
2023-02-24T04:25:24.452Z,1.48
2023-02-24T04:27:54.604Z,1.50
2023-02-24T04:30:24.182Z,1.51
2023-02-24T04:32:51.023Z,1.53
2023-02-24T04:35:21.373Z,1.53
2023-02-24T04:37:49.235Z,1.56
2023-02-24T04:40:18.345Z,1.59
2023-02-24T04:42:49.079Z,1.63
2023-02-24T04:45:30.847Z,1.68
2023-02-24T04:48:10.509Z,1.71
2023-02-24T04:50:37.431Z,1.75
2023-02-24T04:53:09.254Z,1.78
2023-02-24T04:55:48.825Z,1.80
2023-02-24T04:58:20.267Z,1.80
2023-02-24T05:00:49.504Z,1.81
2023-02-24T05:03:17.612Z,1.82
2023-02-24T05:05:57.019Z,1.83
2023-02-24T05:08:25.236Z,1.84
2023-02-24T05:10:56.684Z,1.84
2023-02-24T05:13:28.630Z,1.87
2023-02-24T05:15:58.762Z,1.89
2023-02-24T05:18:26.269Z,1.91
2023-02-24T05:21:14.380Z,1.91
2023-02-24T05:23:45.686Z,1.93
2023-02-24T05:26:16.925Z,1.96
2023-02-24T05:28:49.756Z,1.97
2023-02-24T05:31:24.360Z,2.00
2023-02-24T05:34:00.413Z,2.01
2023-02-24T05:36:32.027Z,2.01
2023-02-24T05:38:58.844Z,2.00
2023-02-24T05:41:32.699Z,2.01
2023-02-24T05:44:02.656Z,2.02
2023-02-24T05:46:32.811Z,2.03
2023-02-24T05:49:09.215Z,2.05
2023-02-24T05:51:39.259Z,2.07
2023-02-24T05:54:08.191Z,2.09
2023-02-24T05:56:37.325Z,2.10
2023-02-24T05:59:07.630Z,2.11
2023-02-24T06:01:37.515Z,2.12
2023-02-24T06:04:06.112Z,2.13
2023-02-24T06:06:36.905Z,2.15
2023-02-24T06:09:12.815Z,2.16
2023-02-24T06:11:41.188Z,2.17
2023-02-24T06:14:10.029Z,2.20
2023-02-24T06:16:39.927Z,2.20
2023-02-24T06:19:08.404Z,2.22
2023-02-24T06:21:36.489Z,2.23
2023-02-24T06:24:03.121Z,2.25
2023-02-24T06:26:33.785Z,2.27
2023-02-24T06:29:00.696Z,2.29
2023-02-24T06:31:27.985Z,2.30
2023-02-24T06:33:54.728Z,2.31
2023-02-24T06:36:23.573Z,2.32
2023-02-24T06:38:50.154Z,2.33
2023-02-24T06:41:16.733Z,2.34
2023-02-24T06:43:45.347Z,2.36
2023-02-24T06:46:13.736Z,2.39
2023-02-24T06:48:40.530Z,2.41
2023-02-24T06:51:11.000Z,2.44
2023-02-24T06:53:43.343Z,2.48
2023-02-24T06:56:19.725Z,2.49
2023-02-24T06:58:52.983Z,2.51
2023-02-24T07:01:25.937Z,2.52
2023-02-24T07:04:17.991Z,2.53
2023-02-24T07:06:49.584Z,2.54
2023-02-24T07:09:18.901Z,2.56
2023-02-24T07:11:48.698Z,2.58
2023-02-24T07:14:15.279Z,2.62
2023-02-24T07:16:45.492Z,2.65
2023-02-24T07:19:15.602Z,2.67
2023-02-24T07:21:46.925Z,2.70
2023-02-24T07:24:25.137Z,2.71
2023-02-24T07:26:57.625Z,2.71
2023-02-24T07:29:27.038Z,2.73
2023-02-24T07:31:55.275Z,2.75
2023-02-24T07:34:24.786Z,2.78
2023-02-24T07:36:52.957Z,2.84
2023-02-24T07:39:20.082Z,2.91
2023-02-24T07:41:49.705Z,3.02
2023-02-24T07:44:20.623Z,3.12
2023-02-24T07:46:49.244Z,3.21
2023-02-24T07:49:21.414Z,3.31
2023-02-24T07:51:55.368Z,3.43
2023-02-24T07:54:25.218Z,3.51
2023-02-24T07:56:59.606Z,3.60
2023-02-24T07:59:33.766Z,3.68
2023-02-24T08:02:05.098Z,3.78
2023-02-24T08:04:33.412Z,3.87
2023-02-24T08:07:03.448Z,3.97
2023-02-24T08:10:09.339Z,4.04
2023-02-24T08:12:42.690Z,4.11
2023-02-24T08:15:17.455Z,4.16
2023-02-24T08:17:44.862Z,4.20
2023-02-24T08:20:15.704Z,4.25
2023-02-24T08:22:47.329Z,4.33
2023-02-24T08:25:19.241Z,4.40
2023-02-24T08:28:06.694Z,4.44
2023-02-24T08:30:39.853Z,4.55
2023-02-24T08:33:09.240Z,4.57
2023-02-24T08:35:38.961Z,4.65
2023-02-24T08:38:09.826Z,4.68
2023-02-24T08:40:50.685Z,4.71
2023-02-24T08:43:34.797Z,4.79
2023-02-24T08:46:18.632Z,4.82
2023-02-24T08:48:55.634Z,4.86
2023-02-24T08:51:29.355Z,4.94
2023-02-24T08:54:00.521Z,4.95
2023-02-24T08:56:30.167Z,4.94
2023-02-24T08:59:05.658Z,4.97
2023-02-24T09:01:43.255Z,5.05
2023-02-24T09:04:13.248Z,5.10
2023-02-24T09:07:10.672Z,5.10
2023-02-24T09:09:42.277Z,5.13
2023-02-24T09:12:12.832Z,5.16
2023-02-24T09:14:39.488Z,5.22
2023-02-24T09:17:11.787Z,5.26
2023-02-24T09:19:52.173Z,5.28
2023-02-24T09:22:31.826Z,5.32
2023-02-24T09:25:40.975Z,5.39
2023-02-24T09:28:10.737Z,5.44
2023-02-24T09:30:51.717Z,5.52
2023-02-24T09:33:39.118Z,5.50
2023-02-24T09:36:14.692Z,5.53
2023-02-24T09:39:05.064Z,5.58
2023-02-24T09:41:56.994Z,5.65
2023-02-24T09:44:34.064Z,5.63
2023-02-24T09:47:09.909Z,5.70
2023-02-24T09:49:46.812Z,5.75
2023-02-24T09:52:17.625Z,5.73
2023-02-24T09:55:08.717Z,5.75
2023-02-24T09:58:05.953Z,5.75
2023-02-24T10:00:33.905Z,5.71
2023-02-24T10:03:19.979Z,5.74
2023-02-24T10:06:00.864Z,5.74
2023-02-24T10:08:38.420Z,5.76
2023-02-24T10:11:08.231Z,5.78
2023-02-24T10:13:46.535Z,5.83
2023-02-24T10:16:23.799Z,5.80
2023-02-24T10:19:01.587Z,5.80
2023-02-24T10:21:59.170Z,5.80
2023-02-24T10:24:49.512Z,5.78
2023-02-24T10:27:27.296Z,5.79
2023-02-24T10:30:11.549Z,5.82
2023-02-24T10:32:47.263Z,5.78
2023-02-24T10:35:20.899Z,5.82
2023-02-24T10:37:49.382Z,5.88
2023-02-24T10:40:27.539Z,5.85
2023-02-24T10:43:10.964Z,5.94
2023-02-24T10:45:46.645Z,5.91
2023-02-24T10:48:40.532Z,5.93
2023-02-24T10:51:22.486Z,5.96
2023-02-24T10:54:14.302Z,5.98
2023-02-24T10:56:55.653Z,6.01
2023-02-24T10:59:28.213Z,6.00
2023-02-24T11:02:29.565Z,6.02
2023-02-24T11:05:02.659Z,6.06
2023-02-24T11:07:53.827Z,6.12
2023-02-24T11:10:32.869Z,6.14
2023-02-24T11:13:20.445Z,6.15
2023-02-24T11:16:12.702Z,6.16
2023-02-24T11:18:40.801Z,6.19
2023-02-24T11:21:12.626Z,6.19
2023-02-24T11:23:44.889Z,6.24
2023-02-24T11:26:22.877Z,6.33
2023-02-24T11:29:07.906Z,6.34
2023-02-24T11:32:02.050Z,6.38
2023-02-24T11:35:00.670Z,6.44
2023-02-24T11:37:46.823Z,6.50
2023-02-24T11:40:26.719Z,6.52
2023-02-24T11:43:01.581Z,6.57
2023-02-24T11:45:39.918Z,6.63
2023-02-24T11:48:19.910Z,6.61
2023-02-24T11:50:53.469Z,6.65
2023-02-24T11:53:30.097Z,6.72
2023-02-24T11:56:06.392Z,6.73
2023-02-24T11:58:58.653Z,6.78
2023-02-24T12:01:33.866Z,6.79
2023-02-24T12:04:19.044Z,6.84
2023-02-24T12:07:10.538Z,6.88
2023-02-24T12:09:45.350Z,6.96
2023-02-24T12:12:35.792Z,7.00
2023-02-24T12:15:17.731Z,7.08
2023-02-24T12:17:58.071Z,7.12
2023-02-24T12:20:54.074Z,7.20
2023-02-24T12:23:28.413Z,7.30
2023-02-24T12:26:20.046Z,7.34
2023-02-24T12:29:42.689Z,7.48
2023-02-24T12:32:41.625Z,7.55
2023-02-24T12:36:00.019Z,7.71
2023-02-24T12:38:50.720Z,7.90
2023-02-24T12:41:53.547Z,8.00
2023-02-24T12:44:52.975Z,8.11
2023-02-24T12:47:49.808Z,8.24
2023-02-24T12:50:30.889Z,8.39
2023-02-24T12:53:08.401Z,8.46
2023-02-24T12:55:44.681Z,8.55
2023-02-24T12:58:19.792Z,8.57
2023-02-24T13:01:02.212Z,8.66
2023-02-24T13:03:57.042Z,8.69
2023-02-24T13:06:50.093Z,8.78
2023-02-24T13:09:41.567Z,8.68
2023-02-24T13:12:34.040Z,8.82
2023-02-24T13:15:02.941Z,8.76
2023-02-24T13:17:30.358Z,8.78
2023-02-24T13:19:57.342Z,8.78
2023-02-24T13:22:30.273Z,8.81
2023-02-24T13:25:02.923Z,8.78
2023-02-24T13:27:35.415Z,8.75
2023-02-24T13:30:25.598Z,8.88
2023-02-24T13:33:07.406Z,8.84
2023-02-24T13:35:37.271Z,8.96
2023-02-24T13:38:35.457Z,8.91
2023-02-24T13:41:23.210Z,9.14
2023-02-24T13:43:58.497Z,9.10
2023-02-24T13:46:28.753Z,8.66
2023-02-24T13:49:04.815Z,8.16
2023-02-24T13:51:52.086Z,8.01
2023-02-24T13:54:27.312Z,7.90
2023-02-24T13:56:59.792Z,7.85
2023-02-24T13:59:44.980Z,7.74
2023-02-24T14:02:16.184Z,7.78
2023-02-24T14:04:52.662Z,7.76
2023-02-24T14:07:30.169Z,7.73
2023-02-24T14:10:01.062Z,7.69
2023-02-24T14:12:31.205Z,7.72
2023-02-24T14:14:59.192Z,7.82
2023-02-24T14:17:29.524Z,7.84
2023-02-24T14:20:11.330Z,7.94
2023-02-24T14:22:47.020Z,8.05
2023-02-24T14:25:15.862Z,8.15
2023-02-24T14:27:49.568Z,8.20
2023-02-24T14:30:37.227Z,8.07
2023-02-24T14:33:06.182Z,8.15
2023-02-24T14:35:34.998Z,8.18
2023-02-24T14:38:02.779Z,8.27
2023-02-24T14:40:30.020Z,8.16
2023-02-24T14:42:57.818Z,8.12
2023-02-24T14:45:27.958Z,8.24
2023-02-24T14:47:56.791Z,8.17
2023-02-24T14:50:31.977Z,8.06
2023-02-24T14:53:08.665Z,8.13
2023-02-24T14:55:37.833Z,8.02
2023-02-24T14:58:13.458Z,7.97
2023-02-24T15:00:46.860Z,7.82
2023-02-24T15:03:31.141Z,7.94
2023-02-24T15:06:05.027Z,7.83
2023-02-24T15:08:41.445Z,7.84
2023-02-24T15:11:22.353Z,7.91
2023-02-24T15:13:55.894Z,7.97
2023-02-24T15:16:28.476Z,7.87
2023-02-24T15:19:00.952Z,7.98
2023-02-24T15:21:31.203Z,7.94
2023-02-24T15:24:05.246Z,7.91
2023-02-24T15:26:34.881Z,8.02
2023-02-24T15:29:13.062Z,7.91
2023-02-24T15:31:40.110Z,7.85
2023-02-24T15:34:19.917Z,8.00
2023-02-24T15:36:48.356Z,8.06
2023-02-24T15:39:23.171Z,8.16
2023-02-24T15:41:51.976Z,8.19
2023-02-24T15:44:31.838Z,8.27
2023-02-24T15:47:00.581Z,8.31
2023-02-24T15:49:27.592Z,8.32
2023-02-24T15:51:56.058Z,8.36
2023-02-24T15:54:30.883Z,8.41
2023-02-24T15:56:59.597Z,8.34
2023-02-24T15:59:26.905Z,8.18
2023-02-24T16:01:53.869Z,8.21
2023-02-24T16:04:21.929Z,7.99
2023-02-24T16:06:55.964Z,8.16
2023-02-24T16:09:36.507Z,8.02
2023-02-24T16:12:10.288Z,8.10
2023-02-24T16:14:37.774Z,8.03
2023-02-24T16:17:09.087Z,7.97
2023-02-24T16:19:37.511Z,7.82
2023-02-24T16:22:04.371Z,7.62
2023-02-24T16:24:31.159Z,7.67
2023-02-24T16:26:57.945Z,7.79
2023-02-24T16:29:24.617Z,7.79
2023-02-24T16:31:51.544Z,7.65
2023-02-24T16:34:18.318Z,7.57
2023-02-24T16:36:45.514Z,7.48
2023-02-24T16:39:14.156Z,7.46
2023-02-24T16:41:40.867Z,7.34
2023-02-24T16:44:07.848Z,7.32
2023-02-24T16:46:41.148Z,7.44
2023-02-24T16:49:13.495Z,7.28
2023-02-24T16:51:40.718Z,7.38
2023-02-24T16:54:10.501Z,7.26
2023-02-24T16:56:37.954Z,7.22
2023-02-24T16:59:04.690Z,7.18
2023-02-24T17:01:32.113Z,7.17
2023-02-24T17:03:59.008Z,7.15
2023-02-24T17:06:26.178Z,7.19
2023-02-24T17:08:53.564Z,7.27
2023-02-24T17:11:21.864Z,7.17
2023-02-24T17:13:48.690Z,6.83
2023-02-24T17:16:15.256Z,6.84
2023-02-24T17:18:42.089Z,6.58
2023-02-24T17:21:13.262Z,6.49
2023-02-24T17:23:40.055Z,6.38
2023-02-24T17:26:06.632Z,6.37
2023-02-24T17:28:33.490Z,6.32
2023-02-24T17:31:00.253Z,6.30
2023-02-24T17:33:28.617Z,6.31
2023-02-24T17:35:55.379Z,6.40
2023-02-24T17:38:23.970Z,6.50
2023-02-24T17:40:50.751Z,6.38
2023-02-24T17:43:17.288Z,6.43
2023-02-24T17:45:45.701Z,6.39
2023-02-24T17:48:13.857Z,6.41
2023-02-24T17:50:45.347Z,6.35
2023-02-24T17:53:12.045Z,6.42
2023-02-24T17:55:39.515Z,6.46
2023-02-24T17:58:07.977Z,6.53
2023-02-24T18:00:34.633Z,6.44
2023-02-24T18:03:03.378Z,6.45
2023-02-24T18:05:30.187Z,6.11
2023-02-24T18:08:00.102Z,5.95
2023-02-24T18:10:27.556Z,5.87
2023-02-24T18:12:54.171Z,5.84
2023-02-24T18:15:28.677Z,5.83
2023-02-24T18:17:55.343Z,5.91
2023-02-24T18:20:21.946Z,5.94
2023-02-24T18:22:48.755Z,6.00
2023-02-24T18:25:15.442Z,5.93
2023-02-24T18:27:42.236Z,5.91
2023-02-24T18:30:10.378Z,5.96
2023-02-24T18:32:43.187Z,5.92
2023-02-24T18:35:12.425Z,6.00
2023-02-24T18:37:39.041Z,5.89
2023-02-24T18:40:06.271Z,5.89
2023-02-24T18:42:32.911Z,5.92
2023-02-24T18:44:59.943Z,5.93
2023-02-24T18:47:26.564Z,5.90
2023-02-24T18:49:53.244Z,5.97
2023-02-24T18:52:19.852Z,5.97
2023-02-24T18:54:50.418Z,5.88
2023-02-24T18:57:17.001Z,5.98
2023-02-24T18:59:43.619Z,5.95
2023-02-24T19:02:10.719Z,5.92
2023-02-24T19:04:37.418Z,5.98
2023-02-24T19:07:04.349Z,5.90
2023-02-24T19:09:30.929Z,5.84
2023-02-24T19:11:57.645Z,5.92
2023-02-24T19:14:24.288Z,5.92
2023-02-24T19:16:51.168Z,5.96
2023-02-24T19:19:18.074Z,6.01
2023-02-24T19:21:45.835Z,5.95
2023-02-24T19:24:14.093Z,5.96
2023-02-24T19:26:42.875Z,6.02
2023-02-24T19:29:10.934Z,5.98
2023-02-24T19:31:39.014Z,6.03
2023-02-24T19:34:10.970Z,6.06
2023-02-24T19:36:38.713Z,6.06
2023-02-24T19:39:09.289Z,6.06
2023-02-24T19:41:36.925Z,6.00
2023-02-24T19:44:04.483Z,5.99
2023-02-24T19:46:33.351Z,6.13
2023-02-24T19:49:00.865Z,6.08
2023-02-24T19:51:28.302Z,6.04
2023-02-24T19:53:57.571Z,6.18
2023-02-24T19:56:26.692Z,6.15
2023-02-24T19:58:54.830Z,6.13
2023-02-24T20:01:22.402Z,6.13
2023-02-24T20:03:49.227Z,6.24
2023-02-24T20:06:24.238Z,6.27
2023-02-24T20:08:51.794Z,6.24
2023-02-24T20:11:21.325Z,6.33
2023-02-24T20:13:50.853Z,6.26
2023-02-24T20:16:19.375Z,6.30
2023-02-24T20:18:46.173Z,6.36
2023-02-24T20:21:13.418Z,6.36
2023-02-24T20:23:41.197Z,6.31
2023-02-24T20:26:10.264Z,6.29
2023-02-24T20:28:49.819Z,6.36
2023-02-24T20:31:21.155Z,6.27
2023-02-24T20:33:49.148Z,6.30
2023-02-24T20:36:22.510Z,6.31
2023-02-24T20:38:50.096Z,6.15
2023-02-24T20:41:17.827Z,6.28
2023-02-24T20:43:44.710Z,6.17
2023-02-24T20:46:26.767Z,6.20
2023-02-24T20:49:01.967Z,6.32
2023-02-24T20:51:30.202Z,6.24
2023-02-24T20:53:58.597Z,6.20
2023-02-24T20:56:29.612Z,6.25
2023-02-24T20:59:01.967Z,6.27
2023-02-24T21:01:30.716Z,6.23
2023-02-24T21:03:57.712Z,6.13
2023-02-24T21:06:25.353Z,6.12
2023-02-24T21:08:53.466Z,6.08
2023-02-24T21:11:21.479Z,5.95
2023-02-24T21:13:49.589Z,5.93
2023-02-24T21:16:18.907Z,5.90
2023-02-24T21:18:47.497Z,5.88
2023-02-24T21:21:15.425Z,5.79
2023-02-24T21:23:43.247Z,5.70
2023-02-24T21:26:10.208Z,5.57
2023-02-24T21:28:37.447Z,5.41
2023-02-24T21:31:09.705Z,5.35
2023-02-24T21:33:36.776Z,5.22
2023-02-24T21:36:09.540Z,5.17
2023-02-24T21:38:37.233Z,5.10
2023-02-24T21:41:07.104Z,5.08
2023-02-24T21:43:34.408Z,4.98
2023-02-24T21:46:03.010Z,4.95
2023-02-24T21:48:29.767Z,4.90
2023-02-24T21:51:05.656Z,4.90
2023-02-24T21:53:35.862Z,4.86
2023-02-24T21:56:16.290Z,4.87
2023-02-24T21:58:50.071Z,4.83
2023-02-24T22:01:21.175Z,4.76
2023-02-24T22:03:47.723Z,4.75
2023-02-24T22:06:17.626Z,4.68
2023-02-24T22:08:45.812Z,4.62
2023-02-24T22:11:16.130Z,4.56
2023-02-24T22:13:43.977Z,4.52
2023-02-24T22:16:13.688Z,4.50
2023-02-24T22:18:42.695Z,4.44
2023-02-24T22:21:12.108Z,4.40
2023-02-24T22:23:39.768Z,4.40
2023-02-24T22:26:08.977Z,4.37
2023-02-24T22:28:39.706Z,4.39
2023-02-24T22:31:07.830Z,4.37
2023-02-24T22:33:36.578Z,4.33
2023-02-24T22:36:07.379Z,4.33
2023-02-24T22:38:35.224Z,4.30
2023-02-24T22:41:04.766Z,4.26
2023-02-24T22:43:31.913Z,4.23
2023-02-24T22:46:04.302Z,4.18
2023-02-24T22:48:33.283Z,4.14
2023-02-24T22:51:02.689Z,4.12
2023-02-24T22:53:31.520Z,4.09
2023-02-24T22:56:01.068Z,4.05
2023-02-24T22:58:28.157Z,4.03
2023-02-24T23:00:55.388Z,4.01
2023-02-24T23:03:25.390Z,4.01
2023-02-24T23:06:03.262Z,4.00
2023-02-24T23:08:32.283Z,4.00
2023-02-24T23:11:12.364Z,3.98
2023-02-24T23:13:40.780Z,3.99
2023-02-24T23:16:12.572Z,3.99
2023-02-24T23:18:39.266Z,3.98
2023-02-24T23:21:09.101Z,3.96
2023-02-24T23:23:37.309Z,3.94
2023-02-24T23:26:04.686Z,3.91
2023-02-24T23:28:31.329Z,3.87
2023-02-24T23:30:58.132Z,3.84
2023-02-24T23:33:24.986Z,3.82
2023-02-24T23:35:51.748Z,3.80
2023-02-24T23:38:18.719Z,3.79
2023-02-24T23:40:50.963Z,3.80
2023-02-24T23:43:18.331Z,3.78
2023-02-24T23:45:45.715Z,3.76
2023-02-24T23:48:14.167Z,3.77
2023-02-24T23:50:46.281Z,3.77
2023-02-24T23:53:13.417Z,3.79
2023-02-24T23:55:41.110Z,3.80
2023-02-24T23:58:08.197Z,3.84
